Terminal Aerodrome Forecast
Issued by NWS Atlanta, GA

Home | Current Version | Previous Version | Text Only | Print | Product List | Glossary On
Versions: 1 2 3 4 5 6 7 8 9 10 11 12 13 14 15 16 17 18 19 20 21 22 23 24 25 26 27 28 29 30 31 32 33 34 35
000
FTAK31 PAJN 290915 AAA
TAFAHN
TAF AMD
PAHN 290915Z 2909/3006 VRB04KT 5SM -SHRA BR BKN014 OVC025
     FM291000 08010KT P6SM -SHRA OVC030
      TEMPO 2913/2917 3SM -SHSNRA OVC015
     FM291700 11010G16KT P6SM -SHRA OVC015
      AMD LTD TO CLD VIS AND WIND=

USA.gov is the U.S. government's official web portal to all federal, state and local government web resources and services.